Time;durP1;ratioP1;P1;durP2;ratioP2;P2;SDS_P1;SDS_P2;PMS_P1;PMS_P2;Temp;Humidity;BMP_temperature;BMP_pressure;BME280_temperature;BME280_humidity;BME280_pressure;Samples;Min_cycle;Max_cycle;Signal;HPM_P1;HPM_P2
2024/01/30 00:02:23;;;;;;;;;;;;;;;;;;4929206;29;19918;-63
2024/01/30 00:04:48;;;;;;;;;;;;;;;;;;4929479;29;20010;-63
2024/01/30 00:07:14;;;;;;;;;;;;;;;;;;4940732;29;20347;-63
2024/01/30 00:09:39;;;;;;;;;;;;;;;;;;4941571;28;19927;-62
2024/01/30 00:12:06;;;;;;;;;;;;;;;;;;4928826;29;20728;-63
2024/01/30 00:14:31;;;;;;;;;;;;;;;;;;4929040;29;19946;-63
2024/01/30 00:16:56;;;;;;;;;;;;;;;;;;4928926;29;19919;-63
2024/01/30 00:19:22;;;;;;;;;;;;;;;;;;4928377;29;19935;-63
2024/01/30 00:21:47;;;;;;;;;;;;;;;;;;4929316;29;19915;-63
2024/01/30 00:24:12;;;;;;;;;;;;;;;;;;4929764;29;19961;-63
2024/01/30 00:26:38;;;;;;;;;;;;;;;;;;4947962;28;19914;-62
2024/01/30 00:29:03;;;;;;;;;;;;;;;;;;4947590;28;20010;-63
2024/01/30 00:31:28;;;;;;;;;;;;;;;;;;4947366;28;19930;-63
2024/01/30 00:33:54;;;;;;;;;;;;;;;;;;4948101;29;19915;-63
2024/01/30 00:36:19;;;;;;;;;;;;;;;;;;4942234;28;19926;-63
2024/01/30 00:38:44;;;;;;;;;;;;;;;;;;4932322;29;20435;-63
2024/01/30 00:41:10;;;;;;;;;;;;;;;;;;4931470;29;20176;-63
2024/01/30 00:43:35;;;;;;;;;;;;;;;;;;4928364;29;20455;-63
2024/01/30 00:46:01;;;;;;;;;;;;;;;;;;4928843;29;19914;-63
2024/01/30 00:48:26;;;;;;;;;;;;;;;;;;4927857;29;20365;-63
2024/01/30 00:50:51;;;;;;;;;;;;;;;;;;4943120;28;19988;-63
2024/01/30 00:53:16;;;;;;;;;;;;;;;;;;4944395;28;20345;-62
2024/01/30 00:55:42;;;;;;;;;;;;;;;;;;4943810;28;19946;-62
2024/01/30 00:58:07;;;;;;;;;;;;;;;;;;4947866;29;19922;-62
2024/01/30 01:00:32;;;;;;;;;;;;;;;;;;4929756;29;20372;-62
2024/01/30 01:02:58;;;;;;;;;;;;;;;;;;4947416;28;20427;-62
2024/01/30 01:05:23;;;;;;;;;;;;;;;;;;4946939;29;19926;-62
2024/01/30 01:07:48;;;;;;;;;;;;;;;;;;4929939;29;19930;-63
2024/01/30 01:10:15;;;;;;;;;;;;;;;;;;4934556;28;19918;-63
2024/01/30 01:12:41;;;;;;;;;;;;;;;;;;4928037;29;19925;-63
2024/01/30 01:15:09;;;;;;;;;;;;;;;;;;4928199;29;19919;-63
2024/01/30 01:17:34;;;;;;;;;;;;;;;;;;4927603;29;19923;-62
2024/01/30 01:20:00;;;;;;;;;;;;;;;;;;4927773;29;19925;-62
2024/01/30 01:22:25;;;;;;;;;;;;;;;;;;4927728;29;19915;-62
2024/01/30 01:24:50;;;;;;;;;;;;;;;;;;4928108;28;20493;-62
2024/01/30 01:27:16;;;;;;;;;;;;;;;;;;4927848;29;19981;-62
2024/01/30 01:29:41;;;;;;;;;;;;;;;;;;4927071;29;19925;-62
2024/01/30 01:32:06;;;;;;;;;;;;;;;;;;4926962;29;20005;-63
2024/01/30 01:34:31;;;;;;;;;;;;;;;;;;4927418;29;20002;-62
2024/01/30 01:36:57;;;;;;;;;;;;;;;;;;4928030;29;19911;-62
2024/01/30 01:39:25;;;;;;;;;;;;;;;;;;4922936;28;19929;-62
2024/01/30 01:41:51;;;;;;;;;;;;;;;;;;4938597;28;20504;-62
2024/01/30 01:44:17;;;;;;;;;;;;;;;;;;4946787;28;20009;-63
2024/01/30 01:46:42;;;;;;;;;;;;;;;;;;4946873;29;20852;-62
2024/01/30 01:49:08;;;;;;;;;;;;;;;;;;4946793;29;20411;-62
2024/01/30 01:51:35;;;;;;;;;;;;;;;;;;4948111;28;19919;-63
2024/01/30 01:54:01;;;;;;;;;;;;;;;;;;4940615;28;20029;-62
2024/01/30 01:56:27;;;;;;;;;;;;;;;;;;4945533;28;19914;-62
2024/01/30 01:58:54;;;;;;;;;;;;;;;;;;4946201;28;19972;-62
2024/01/30 02:01:20;;;;;;;;;;;;;;;;;;4946189;28;19922;-63
2024/01/30 02:03:45;;;;;;;;;;;;;;;;;;4946101;29;19910;-63
2024/01/30 02:06:11;;;;;;;;;;;;;;;;;;4944756;28;19978;-63
2024/01/30 02:08:37;;;;;;;;;;;;;;;;;;4945076;28;19930;-63
2024/01/30 02:11:02;;;;;;;;;;;;;;;;;;4930125;29;20412;-63
2024/01/30 02:13:28;;;;;;;;;;;;;;;;;;4926822;29;20448;-62
2024/01/30 02:15:53;;;;;;;;;;;;;;;;;;4926655;29;19922;-63
2024/01/30 02:18:19;;;;;;;;;;;;;;;;;;4926747;29;19930;-63
2024/01/30 02:20:45;;;;;;;;;;;;;;;;;;4925285;29;19918;-65
2024/01/30 02:23:12;;;;;;;;;;;;;;;;;;4927242;29;19918;-62
2024/01/30 02:25:43;;;;;;;;;;;;;;;;;;4927798;29;19969;-62
2024/01/30 02:28:09;;;;;;;;;;;;;;;;;;4927340;29;20317;-62
2024/01/30 02:30:34;;;;;;;;;;;;;;;;;;4926205;29;20468;-62
2024/01/30 02:32:59;;;;;;;;;;;;;;;;;;4925728;29;19927;-63
2024/01/30 02:35:24;;;;;;;;;;;;;;;;;;4926591;29;19919;-62
2024/01/30 02:37:50;;;;;;;;;;;;;;;;;;4929602;28;19926;-63
2024/01/30 02:40:15;;;;;;;;;;;;;;;;;;4936559;28;20648;-62
2024/01/30 02:42:41;;;;;;;;;;;;;;;;;;4945848;28;19961;-62
2024/01/30 02:45:07;;;;;;;;;;;;;;;;;;4927015;29;19918;-62
2024/01/30 02:47:32;;;;;;;;;;;;;;;;;;4945354;28;19915;-63
2024/01/30 02:49:57;;;;;;;;;;;;;;;;;;4947988;28;19921;-63
2024/01/30 02:52:22;;;;;;;;;;;;;;;;;;4944164;28;19973;-63
2024/01/30 02:54:48;;;;;;;;;;;;;;;;;;4933268;29;19911;-63
2024/01/30 02:57:13;;;;;;;;;;;;;;;;;;4926051;29;19918;-63
2024/01/30 02:59:38;;;;;;;;;;;;;;;;;;4925670;29;19919;-63
2024/01/30 03:02:04;;;;;;;;;;;;;;;;;;4926008;29;19919;-63
2024/01/30 03:04:30;;;;;;;;;;;;;;;;;;4908337;29;19925;-63
2024/01/30 03:06:55;;;;;;;;;;;;;;;;;;4934486;29;19918;-63
2024/01/30 03:09:20;;;;;;;;;;;;;;;;;;4938284;28;19927;-63
2024/01/30 03:11:45;;;;;;;;;;;;;;;;;;4925385;29;19918;-63
2024/01/30 03:14:11;;;;;;;;;;;;;;;;;;4925974;29;20328;-62
2024/01/30 03:16:36;;;;;;;;;;;;;;;;;;4925799;29;20002;-62
2024/01/30 03:19:03;;;;;;;;;;;;;;;;;;4926150;29;20513;-62
2024/01/30 03:21:28;;;;;;;;;;;;;;;;;;4925659;29;20451;-63
2024/01/30 03:23:54;;;;;;;;;;;;;;;;;;4925938;28;20021;-63
2024/01/30 03:26:19;;;;;;;;;;;;;;;;;;4944303;29;19929;-63
2024/01/30 03:28:44;;;;;;;;;;;;;;;;;;4944712;28;19937;-62
2024/01/30 03:31:09;;;;;;;;;;;;;;;;;;4945594;28;20012;-63
2024/01/30 03:33:36;;;;;;;;;;;;;;;;;;4951566;28;20009;-63
2024/01/30 03:36:05;;;;;;;;;;;;;;;;;;4951233;28;19922;-62
2024/01/30 03:38:32;;;;;;;;;;;;;;;;;;4946312;28;19931;-63
2024/01/30 03:40:57;;;;;;;;;;;;;;;;;;4933951;29;19926;-63
2024/01/30 03:43:22;;;;;;;;;;;;;;;;;;4931585;29;19925;-63
2024/01/30 03:45:48;;;;;;;;;;;;;;;;;;4931884;29;20045;-62
2024/01/30 03:48:13;;;;;;;;;;;;;;;;;;4931859;29;19954;-62
2024/01/30 03:50:38;;;;;;;;;;;;;;;;;;4944608;28;20017;-62
2024/01/30 03:53:03;;;;;;;;;;;;;;;;;;4950351;28;19953;-62
2024/01/30 03:55:29;;;;;;;;;;;;;;;;;;4931713;29;19959;-62
2024/01/30 03:57:54;;;;;;;;;;;;;;;;;;4932060;29;19915;-63
2024/01/30 04:00:19;;;;;;;;;;;;;;;;;;4931838;29;19919;-62
2024/01/30 04:02:44;;;;;;;;;;;;;;;;;;4931811;29;19918;-63
2024/01/30 04:05:10;;;;;;;;;;;;;;;;;;4931224;29;19923;-62
2024/01/30 04:07:35;;;;;;;;;;;;;;;;;;4946100;28;20897;-63
2024/01/30 04:10:01;;;;;;;;;;;;;;;;;;4940370;28;19950;-62
2024/01/30 04:12:26;;;;;;;;;;;;;;;;;;4931217;29;19922;-62
2024/01/30 04:14:51;;;;;;;;;;;;;;;;;;4931834;29;19926;-62
2024/01/30 04:17:16;;;;;;;;;;;;;;;;;;4931559;29;19918;-62
2024/01/30 04:19:41;;;;;;;;;;;;;;;;;;4930971;29;19915;-62
2024/01/30 04:22:07;;;;;;;;;;;;;;;;;;4931865;29;20042;-63
2024/01/30 04:24:32;;;;;;;;;;;;;;;;;;4933294;29;20021;-63
2024/01/30 04:26:57;;;;;;;;;;;;;;;;;;4931259;29;19929;-63
2024/01/30 04:29:23;;;;;;;;;;;;;;;;;;4930973;29;19926;-63
2024/01/30 04:31:48;;;;;;;;;;;;;;;;;;4931266;29;19942;-63
2024/01/30 04:34:13;;;;;;;;;;;;;;;;;;4932453;29;19923;-63
2024/01/30 04:36:38;;;;;;;;;;;;;;;;;;4931069;29;19973;-62
2024/01/30 04:39:04;;;;;;;;;;;;;;;;;;4931231;29;20013;-63
2024/01/30 04:41:31;;;;;;;;;;;;;;;;;;4931647;29;19929;-62
2024/01/30 04:43:56;;;;;;;;;;;;;;;;;;4910662;29;20308;-63
2024/01/30 04:46:21;;;;;;;;;;;;;;;;;;4928781;29;20388;-63
2024/01/30 04:48:47;;;;;;;;;;;;;;;;;;4928640;29;19910;-63
2024/01/30 04:51:12;;;;;;;;;;;;;;;;;;4943441;28;19915;-63
2024/01/30 04:53:39;;;;;;;;;;;;;;;;;;4929138;29;19922;-63
2024/01/30 04:56:05;;;;;;;;;;;;;;;;;;4929215;28;19918;-63
2024/01/30 04:58:30;;;;;;;;;;;;;;;;;;4927897;29;20293;-63
2024/01/30 05:00:55;;;;;;;;;;;;;;;;;;4929259;29;20448;-63
2024/01/30 05:03:22;;;;;;;;;;;;;;;;;;4928027;29;19945;-64
2024/01/30 05:05:47;;;;;;;;;;;;;;;;;;4928052;29;19927;-63
2024/01/30 05:08:14;;;;;;;;;;;;;;;;;;4945280;28;20510;-63
2024/01/30 05:10:39;;;;;;;;;;;;;;;;;;4941551;28;20027;-63
2024/01/30 05:13:04;;;;;;;;;;;;;;;;;;4944218;29;20431;-63
2024/01/30 05:15:30;;;;;;;;;;;;;;;;;;4946471;28;19918;-63
2024/01/30 05:17:55;;;;;;;;;;;;;;;;;;4947145;28;19926;-63
2024/01/30 05:20:20;;;;;;;;;;;;;;;;;;4946572;28;20402;-62
2024/01/30 05:22:46;;;;;;;;;;;;;;;;;;4947144;28;20352;-62
2024/01/30 05:25:12;;;;;;;;;;;;;;;;;;4933142;29;20001;-63
2024/01/30 05:27:37;;;;;;;;;;;;;;;;;;4927752;29;20196;-63
2024/01/30 05:30:02;;;;;;;;;;;;;;;;;;4926958;29;20294;-63
2024/01/30 05:32:28;;;;;;;;;;;;;;;;;;4926695;29;19926;-63
2024/01/30 05:34:53;;;;;;;;;;;;;;;;;;4927511;29;19918;-63
2024/01/30 05:37:18;;;;;;;;;;;;;;;;;;4928059;29;19921;-63
2024/01/30 05:39:43;;;;;;;;;;;;;;;;;;4931931;29;19921;-63
2024/01/30 05:42:09;;;;;;;;;;;;;;;;;;4927318;29;19926;-63
2024/01/30 05:44:35;;;;;;;;;;;;;;;;;;4927554;29;19926;-63
2024/01/30 05:47:00;;;;;;;;;;;;;;;;;;4927187;29;19978;-62
2024/01/30 05:49:25;;;;;;;;;;;;;;;;;;4929188;28;20323;-63
2024/01/30 05:51:50;;;;;;;;;;;;;;;;;;4948357;28;20399;-63
2024/01/30 05:54:16;;;;;;;;;;;;;;;;;;4941555;28;19938;-62
2024/01/30 05:56:41;;;;;;;;;;;;;;;;;;4926908;29;19926;-62
2024/01/30 05:59:06;;;;;;;;;;;;;;;;;;4926981;29;19954;-63
2024/01/30 06:01:32;;;;;;;;;;;;;;;;;;4927149;29;19982;-62
2024/01/30 06:03:57;;;;;;;;;;;;;;;;;;4927077;29;19915;-62
2024/01/30 06:06:22;;;;;;;;;;;;;;;;;;4930978;29;20512;-62
2024/01/30 06:08:47;;;;;;;;;;;;;;;;;;4942010;28;19926;-62
2024/01/30 06:11:13;;;;;;;;;;;;;;;;;;4933177;28;20311;-62
2024/01/30 06:13:38;;;;;;;;;;;;;;;;;;4945653;28;19919;-62
2024/01/30 06:16:03;;;;;;;;;;;;;;;;;;4946949;29;19907;-62
2024/01/30 06:18:30;;;;;;;;;;;;;;;;;;4945461;28;20494;-62
2024/01/30 06:20:56;;;;;;;;;;;;;;;;;;4945615;28;19918;-62
2024/01/30 06:23:21;;;;;;;;;;;;;;;;;;4944100;28;19922;-62
2024/01/30 06:25:47;;;;;;;;;;;;;;;;;;4937888;28;19964;-63
2024/01/30 06:28:12;;;;;;;;;;;;;;;;;;4941991;29;19911;-63
2024/01/30 06:30:37;;;;;;;;;;;;;;;;;;4945187;28;20005;-63
2024/01/30 06:33:02;;;;;;;;;;;;;;;;;;4944866;28;19918;-63
2024/01/30 06:35:28;;;;;;;;;;;;;;;;;;4928739;29;19914;-63
2024/01/30 06:37:54;;;;;;;;;;;;;;;;;;4946037;28;19923;-63
2024/01/30 06:40:19;;;;;;;;;;;;;;;;;;4934135;28;19949;-63
2024/01/30 06:42:44;;;;;;;;;;;;;;;;;;4944659;29;19918;-62
2024/01/30 06:45:09;;;;;;;;;;;;;;;;;;4944854;28;20060;-63
2024/01/30 06:47:35;;;;;;;;;;;;;;;;;;4944358;28;19926;-64
2024/01/30 06:50:01;;;;;;;;;;;;;;;;;;4943165;28;19958;-65
2024/01/30 06:52:27;;;;;;;;;;;;;;;;;;4940739;28;19910;-62
2024/01/30 06:54:52;;;;;;;;;;;;;;;;;;4930878;29;19907;-63
2024/01/30 06:57:17;;;;;;;;;;;;;;;;;;4937213;29;19922;-63
2024/01/30 06:59:43;;;;;;;;;;;;;;;;;;4944856;28;19918;-61
2024/01/30 07:02:12;;;;;;;;;;;;;;;;;;4935265;28;19922;-62
2024/01/30 07:04:37;;;;;;;;;;;;;;;;;;4944559;28;19933;-62
2024/01/30 07:07:04;;;;;;;;;;;;;;;;;;4952945;28;19922;-62
2024/01/30 07:09:29;;;;;;;;;;;;;;;;;;4941739;28;19981;-62
2024/01/30 07:11:55;;;;;;;;;;;;;;;;;;4925841;29;19918;-63
2024/01/30 07:14:20;;;;;;;;;;;;;;;;;;4908236;29;19945;-63
2024/01/30 07:16:46;;;;;;;;;;;;;;;;;;4925794;29;20448;-62
2024/01/30 07:19:11;;;;;;;;;;;;;;;;;;4930666;28;19985;-62
2024/01/30 07:21:36;;;;;;;;;;;;;;;;;;4945071;29;19982;-63
2024/01/30 07:24:01;;;;;;;;;;;;;;;;;;4940416;28;19922;-63
2024/01/30 07:26:27;;;;;;;;;;;;;;;;;;4942164;29;20483;-62
2024/01/30 07:28:52;;;;;;;;;;;;;;;;;;4928263;29;20352;-63
2024/01/30 07:31:20;;;;;;;;;;;;;;;;;;4944944;29;19914;-62
2024/01/30 07:33:45;;;;;;;;;;;;;;;;;;4944952;29;19926;-63
2024/01/30 07:36:11;;;;;;;;;;;;;;;;;;4945268;29;19922;-62
2024/01/30 07:38:36;;;;;;;;;;;;;;;;;;4939588;29;19933;-62
2024/01/30 07:41:01;;;;;;;;;;;;;;;;;;4928874;29;20010;-63
2024/01/30 07:43:26;;;;;;;;;;;;;;;;;;4925946;29;20400;-63
2024/01/30 07:45:52;;;;;;;;;;;;;;;;;;4926149;28;19953;-62
2024/01/30 07:48:17;;;;;;;;;;;;;;;;;;4926319;29;19953;-62
2024/01/30 07:50:42;;;;;;;;;;;;;;;;;;4954512;28;19929;-62
2024/01/30 07:53:07;;;;;;;;;;;;;;;;;;4942568;28;19941;-62
2024/01/30 07:55:33;;;;;;;;;;;;;;;;;;4925693;28;19970;-63
2024/01/30 07:58:01;;;;;;;;;;;;;;;;;;4925917;28;20421;-62
2024/01/30 08:00:27;;;;;;;;;;;;;;;;;;4926133;28;20363;-63
2024/01/30 08:02:54;;;;;;;;;;;;;;;;;;4933800;28;19933;-63
2024/01/30 08:05:19;;;;;;;;;;;;;;;;;;4936021;28;19933;-63
2024/01/30 08:07:45;;;;;;;;;;;;;;;;;;4933023;29;19919;-63
2024/01/30 08:10:11;;;;;;;;;;;;;;;;;;4932327;28;20046;-62
2024/01/30 08:12:37;;;;;;;;;;;;;;;;;;4940860;29;20012;-63
2024/01/30 08:15:03;;;;;;;;;;;;;;;;;;4930803;28;20403;-62
2024/01/30 08:17:28;;;;;;;;;;;;;;;;;;4924869;29;19923;-63
2024/01/30 08:19:53;;;;;;;;;;;;;;;;;;4927981;29;19930;-62
2024/01/30 08:22:18;;;;;;;;;;;;;;;;;;4938068;28;19918;-62
2024/01/30 08:24:44;;;;;;;;;;;;;;;;;;4935264;28;19945;-63
2024/01/30 08:27:09;;;;;;;;;;;;;;;;;;4927253;29;20475;-63
2024/01/30 08:29:35;;;;;;;;;;;;;;;;;;4932674;29;19923;-63
2024/01/30 08:32:00;;;;;;;;;;;;;;;;;;4947884;28;19918;-63
2024/01/30 08:34:25;;;;;;;;;;;;;;;;;;4947889;28;19911;-63
2024/01/30 08:36:51;;;;;;;;;;;;;;;;;;4938476;29;19914;-63
2024/01/30 08:39:16;;;;;;;;;;;;;;;;;;4939040;28;19927;-63
2024/01/30 08:41:41;;;;;;;;;;;;;;;;;;4937846;28;19933;-63
2024/01/30 08:44:07;;;;;;;;;;;;;;;;;;4937079;28;19918;-63
2024/01/30 08:46:32;;;;;;;;;;;;;;;;;;4928122;29;19915;-62
2024/01/30 08:48:57;;;;;;;;;;;;;;;;;;4928630;28;20355;-62
2024/01/30 08:51:23;;;;;;;;;;;;;;;;;;4939131;28;19930;-62
2024/01/30 08:53:48;;;;;;;;;;;;;;;;;;4912463;29;19926;-62
2024/01/30 08:56:13;;;;;;;;;;;;;;;;;;4939196;28;20384;-62
2024/01/30 08:58:39;;;;;;;;;;;;;;;;;;4938765;28;19945;-62
2024/01/30 09:01:05;;;;;;;;;;;;;;;;;;4930377;29;19965;-62
2024/01/30 09:03:32;;;;;;;;;;;;;;;;;;4928398;28;19922;-61
2024/01/30 09:05:57;;;;;;;;;;;;;;;;;;4931933;28;19953;-64
2024/01/30 09:08:22;;;;;;;;;;;;;;;;;;4929526;28;20695;-62
2024/01/30 09:10:49;;;;;;;;;;;;;;;;;;4942512;28;19998;-62
2024/01/30 09:13:14;;;;;;;;;;;;;;;;;;4947580;29;19914;-62
2024/01/30 09:15:40;;;;;;;;;;;;;;;;;;4946871;28;19921;-63
2024/01/30 09:18:05;;;;;;;;;;;;;;;;;;4946904;28;19937;-63
2024/01/30 09:20:31;;;;;;;;;;;;;;;;;;4936201;28;19919;-62
2024/01/30 09:22:56;;;;;;;;;;;;;;;;;;4937777;28;19922;-63
2024/01/30 09:25:21;;;;;;;;;;;;;;;;;;4928265;29;19944;-62
2024/01/30 09:27:46;;;;;;;;;;;;;;;;;;4910702;29;19917;-61
2024/01/30 09:30:12;;;;;;;;;;;;;;;;;;4927161;29;20414;-61
2024/01/30 09:32:39;;;;;;;;;;;;;;;;;;4929141;29;19919;-62
2024/01/30 09:35:04;;;;;;;;;;;;;;;;;;4946234;28;19918;-62
2024/01/30 09:37:29;;;;;;;;;;;;;;;;;;4946140;28;19910;-63
2024/01/30 09:39:55;;;;;;;;;;;;;;;;;;4933589;29;19919;-62
2024/01/30 09:42:23;;;;;;;;;;;;;;;;;;4945863;28;19973;-63
2024/01/30 09:44:50;;;;;;;;;;;;;;;;;;4949080;28;19933;-63
2024/01/30 09:47:16;;;;;;;;;;;;;;;;;;4966011;28;20004;-63
2024/01/30 09:49:43;;;;;;;;;;;;;;;;;;4941074;28;20013;-63
2024/01/30 09:52:08;;;;;;;;;;;;;;;;;;4930331;28;19929;-63
2024/01/30 09:54:33;;;;;;;;;;;;;;;;;;4931052;29;19922;-63
2024/01/30 09:56:59;;;;;;;;;;;;;;;;;;4939638;28;20364;-62
2024/01/30 09:59:24;;;;;;;;;;;;;;;;;;4934386;29;19950;-63
2024/01/30 10:01:50;;;;;;;;;;;;;;;;;;4932738;28;19922;-63
2024/01/30 10:04:15;;;;;;;;;;;;;;;;;;4943409;29;20820;-62
2024/01/30 10:06:41;;;;;;;;;;;;;;;;;;4937868;29;19927;-63
2024/01/30 10:09:06;;;;;;;;;;;;;;;;;;4937297;28;19926;-62
2024/01/30 10:11:32;;;;;;;;;;;;;;;;;;4935520;28;19929;-63
2024/01/30 10:13:57;;;;;;;;;;;;;;;;;;4945638;28;20520;-63
2024/01/30 10:16:23;;;;;;;;;;;;;;;;;;4943969;29;19914;-62
2024/01/30 10:18:48;;;;;;;;;;;;;;;;;;4946084;29;19923;-62
2024/01/30 10:21:14;;;;;;;;;;;;;;;;;;4944783;28;19918;-63
2024/01/30 10:23:39;;;;;;;;;;;;;;;;;;4938610;28;19929;-63
2024/01/30 10:26:04;;;;;;;;;;;;;;;;;;4926503;29;20396;-62
2024/01/30 10:28:30;;;;;;;;;;;;;;;;;;4926174;29;19917;-63
2024/01/30 10:31:03;;;;;;;;;;;;;;;;;;4925411;29;19911;-63
2024/01/30 10:33:29;;;;;;;;;;;;;;;;;;4931086;29;20375;-63
2024/01/30 10:35:59;;;;;;;;;;;;;;;;;;4927892;29;19947;-63
2024/01/30 10:38:25;;;;;;;;;;;;;;;;;;4942011;28;19936;-65
2024/01/30 10:40:54;;;;;;;;;;;;;;;;;;4928746;28;19934;-62
2024/01/30 10:43:21;;;;;;;;;;;;;;;;;;4933891;28;19922;-61
2024/01/30 10:45:49;;;;;;;;;;;;;;;;;;4942171;29;20021;-62
2024/01/30 10:48:16;;;;;;;;;;;;;;;;;;4945430;28;19945;-62
2024/01/30 10:50:42;;;;;;;;;;;;;;;;;;4947280;28;20308;-63
2024/01/30 10:53:08;;;;;;;;;;;;;;;;;;4938324;28;19926;-61
2024/01/30 10:55:34;;;;;;;;;;;;;;;;;;4933097;29;19940;-61
2024/01/30 10:58:00;;;;;;;;;;;;;;;;;;4928899;28;20879;-62
2024/01/30 11:00:26;;;;;;;;;;;;;;;;;;4942303;28;20678;-62
2024/01/30 11:02:51;;;;;;;;;;;;;;;;;;4943160;29;19919;-62
2024/01/30 11:05:25;;;;;;;;;;;;;;;;;;4938926;29;20328;-62
2024/01/30 11:07:50;;;;;;;;;;;;;;;;;;4938883;28;20444;-61
2024/01/30 11:10:15;;;;;;;;;;;;;;;;;;4929183;28;19918;-62
2024/01/30 11:12:42;;;;;;;;;;;;;;;;;;4935633;28;19945;-62
2024/01/30 11:15:12;;;;;;;;;;;;;;;;;;4925292;28;19965;-62
2024/01/30 11:18:03;;;;;;;;;;;;;;;;;;4923798;29;19923;-62
2024/01/30 11:20:33;;;;;;;;;;;;;;;;;;4919505;29;19965;-62
2024/01/30 11:22:59;;;;;;;;;;;;;;;;;;4935722;28;19928;-62
2024/01/30 11:25:24;;;;;;;;;;;;;;;;;;4932778;28;19918;-63
2024/01/30 11:27:53;;;;;;;;;;;;;;;;;;4928021;29;20008;-62
2024/01/30 11:30:29;;;;;;;;;;;;;;;;;;4943046;28;19933;-62
2024/01/30 11:32:58;;;;;;;;;;;;;;;;;;4930782;28;19922;-62
2024/01/30 11:35:24;;;;;;;;;;;;;;;;;;4924452;29;20041;-62
2024/01/30 11:37:49;;;;;;;;;;;;;;;;;;4931107;28;19933;-62
2024/01/30 11:40:14;;;;;;;;;;;;;;;;;;4927702;29;19962;-62
2024/01/30 11:42:40;;;;;;;;;;;;;;;;;;4928342;28;19933;-62
2024/01/30 11:45:05;;;;;;;;;;;;;;;;;;4937880;28;19974;-62
2024/01/30 11:47:31;;;;;;;;;;;;;;;;;;4923234;28;19922;-62
2024/01/30 11:49:56;;;;;;;;;;;;;;;;;;4932665;28;19918;-63
2024/01/30 11:52:22;;;;;;;;;;;;;;;;;;4945560;28;20350;-62
2024/01/30 11:54:47;;;;;;;;;;;;;;;;;;4948924;28;20001;-62
2024/01/30 11:57:12;;;;;;;;;;;;;;;;;;4948815;28;19919;-62
2024/01/30 11:59:37;;;;;;;;;;;;;;;;;;4948560;28;19925;-62
2024/01/30 12:02:03;;;;;;;;;;;;;;;;;;4948780;28;19918;-62
2024/01/30 12:04:29;;;;;;;;;;;;;;;;;;4948930;28;19925;-62
2024/01/30 12:06:54;;;;;;;;;;;;;;;;;;4957341;28;19922;-62
2024/01/30 12:09:19;;;;;;;;;;;;;;;;;;4948684;28;19926;-62
2024/01/30 12:11:45;;;;;;;;;;;;;;;;;;4948460;28;19918;-63
2024/01/30 12:14:11;;;;;;;;;;;;;;;;;;4948600;28;19919;-62
2024/01/30 12:16:36;;;;;;;;;;;;;;;;;;4948831;28;20004;-65
2024/01/30 12:19:02;;;;;;;;;;;;;;;;;;4934372;29;20792;-61
2024/01/30 12:21:28;;;;;;;;;;;;;;;;;;4929024;29;19918;-61
2024/01/30 12:23:53;;;;;;;;;;;;;;;;;;4929551;29;19922;-62
2024/01/30 12:26:18;;;;;;;;;;;;;;;;;;4928829;28;19941;-61
2024/01/30 12:28:50;;;;;;;;;;;;;;;;;;4946115;29;19918;-62
2024/01/30 12:31:15;;;;;;;;;;;;;;;;;;4947812;28;20008;-62
2024/01/30 12:33:40;;;;;;;;;;;;;;;;;;4948422;29;20037;-62
2024/01/30 12:36:06;;;;;;;;;;;;;;;;;;4948022;29;19918;-62
2024/01/30 12:38:32;;;;;;;;;;;;;;;;;;4947991;29;19927;-62
2024/01/30 12:40:58;;;;;;;;;;;;;;;;;;4948357;28;19918;-62
2024/01/30 12:43:26;;;;;;;;;;;;;;;;;;4948079;28;20004;-63
2024/01/30 12:45:54;;;;;;;;;;;;;;;;;;4948508;29;19946;-62
2024/01/30 12:48:20;;;;;;;;;;;;;;;;;;4948159;28;19918;-62
2024/01/30 12:50:45;;;;;;;;;;;;;;;;;;4958956;28;19974;-62
2024/01/30 12:53:12;;;;;;;;;;;;;;;;;;4967282;28;19981;-61
2024/01/30 12:55:37;;;;;;;;;;;;;;;;;;4966620;28;19926;-62
2024/01/30 12:58:03;;;;;;;;;;;;;;;;;;4967346;28;19975;-62
2024/01/30 13:00:28;;;;;;;;;;;;;;;;;;4966662;28;19918;-62
2024/01/30 13:02:53;;;;;;;;;;;;;;;;;;4967394;28;19921;-62
2024/01/30 13:05:18;;;;;;;;;;;;;;;;;;4962761;28;19926;-62
2024/01/30 13:07:44;;;;;;;;;;;;;;;;;;4930159;28;20013;-62
2024/01/30 13:10:09;;;;;;;;;;;;;;;;;;4928492;29;19915;-62
2024/01/30 13:12:35;;;;;;;;;;;;;;;;;;4928186;29;19965;-62
2024/01/30 13:15:04;;;;;;;;;;;;;;;;;;4928175;28;19920;-64
2024/01/30 13:17:30;;;;;;;;;;;;;;;;;;4928030;29;19929;-62
2024/01/30 13:19:55;;;;;;;;;;;;;;;;;;4927747;29;19918;-62
2024/01/30 13:22:23;;;;;;;;;;;;;;;;;;4928337;29;20407;-62
2024/01/30 13:24:49;;;;;;;;;;;;;;;;;;4928209;29;20049;-62
2024/01/30 13:27:14;;;;;;;;;;;;;;;;;;4928224;29;20005;-62
2024/01/30 13:29:39;;;;;;;;;;;;;;;;;;4928062;29;19918;-62
2024/01/30 13:32:05;;;;;;;;;;;;;;;;;;4927179;29;19915;-62
2024/01/30 13:34:30;;;;;;;;;;;;;;;;;;4928186;29;19918;-62
2024/01/30 13:36:55;;;;;;;;;;;;;;;;;;4937785;29;20387;-62
2024/01/30 13:39:20;;;;;;;;;;;;;;;;;;4947242;28;20406;-62
2024/01/30 13:41:46;;;;;;;;;;;;;;;;;;4946849;29;19919;-62
2024/01/30 13:44:11;;;;;;;;;;;;;;;;;;4946906;28;19973;-62
2024/01/30 13:46:36;;;;;;;;;;;;;;;;;;4946913;28;20419;-62
2024/01/30 13:49:02;;;;;;;;;;;;;;;;;;4947430;28;20467;-62
2024/01/30 13:51:27;;;;;;;;;;;;;;;;;;4964010;28;19946;-61
2024/01/30 13:53:53;;;;;;;;;;;;;;;;;;4945491;28;19923;-61
2024/01/30 13:56:19;;;;;;;;;;;;;;;;;;4927459;29;20435;-62
2024/01/30 13:58:44;;;;;;;;;;;;;;;;;;4927228;29;19961;-62
2024/01/30 14:01:10;;;;;;;;;;;;;;;;;;4922680;28;19991;-62
2024/01/30 14:03:35;;;;;;;;;;;;;;;;;;4929579;28;19922;-64
2024/01/30 14:06:00;;;;;;;;;;;;;;;;;;4929079;28;19939;-62
2024/01/30 14:08:27;;;;;;;;;;;;;;;;;;4945895;28;20400;-63
2024/01/30 14:10:53;;;;;;;;;;;;;;;;;;4944940;28;19925;-62
2024/01/30 14:13:18;;;;;;;;;;;;;;;;;;4938807;28;19918;-62
2024/01/30 14:15:44;;;;;;;;;;;;;;;;;;4944055;28;19925;-62
2024/01/30 14:18:10;;;;;;;;;;;;;;;;;;4945428;28;20430;-62
2024/01/30 14:20:36;;;;;;;;;;;;;;;;;;4945807;28;20013;-62
2024/01/30 14:23:01;;;;;;;;;;;;;;;;;;4945300;29;20025;-63
2024/01/30 14:25:26;;;;;;;;;;;;;;;;;;4926430;29;19914;-62
2024/01/30 14:27:52;;;;;;;;;;;;;;;;;;4934568;28;20372;-62
2024/01/30 14:30:17;;;;;;;;;;;;;;;;;;4945118;28;20091;-63
2024/01/30 14:32:44;;;;;;;;;;;;;;;;;;4944798;28;19925;-62
2024/01/30 14:35:10;;;;;;;;;;;;;;;;;;4945559;28;19925;-63
2024/01/30 14:37:35;;;;;;;;;;;;;;;;;;4945062;29;19910;-63
2024/01/30 14:40:00;;;;;;;;;;;;;;;;;;4946183;29;19938;-62
2024/01/30 14:42:27;;;;;;;;;;;;;;;;;;4943058;29;20462;-62
2024/01/30 14:44:52;;;;;;;;;;;;;;;;;;4945074;28;19919;-63
2024/01/30 14:47:17;;;;;;;;;;;;;;;;;;4945228;28;19966;-62
2024/01/30 14:49:43;;;;;;;;;;;;;;;;;;4947032;28;20746;-63
2024/01/30 14:52:10;;;;;;;;;;;;;;;;;;4945593;29;19989;-62
2024/01/30 14:54:35;;;;;;;;;;;;;;;;;;4944506;28;19918;-61
2024/01/30 14:57:01;;;;;;;;;;;;;;;;;;4944852;28;19925;-62
2024/01/30 14:59:26;;;;;;;;;;;;;;;;;;4945286;28;19922;-62
2024/01/30 15:01:52;;;;;;;;;;;;;;;;;;4945075;28;19914;-61
2024/01/30 15:04:17;;;;;;;;;;;;;;;;;;4944996;29;19929;-63
2024/01/30 15:06:45;;;;;;;;;;;;;;;;;;4953169;28;20364;-62
2024/01/30 15:09:11;;;;;;;;;;;;;;;;;;4944597;28;19952;-62
2024/01/30 15:11:36;;;;;;;;;;;;;;;;;;4941902;28;19945;-62
2024/01/30 15:14:02;;;;;;;;;;;;;;;;;;4945077;28;20382;-63
2024/01/30 15:16:28;;;;;;;;;;;;;;;;;;4944926;29;19914;-62
2024/01/30 15:18:53;;;;;;;;;;;;;;;;;;4945020;29;20789;-62
2024/01/30 15:21:22;;;;;;;;;;;;;;;;;;4944592;28;19918;-62
2024/01/30 15:23:47;;;;;;;;;;;;;;;;;;4944871;28;20040;-62
2024/01/30 15:26:12;;;;;;;;;;;;;;;;;;4944461;29;20034;-62
2024/01/30 15:28:38;;;;;;;;;;;;;;;;;;4941789;28;19975;-63
2024/01/30 15:31:05;;;;;;;;;;;;;;;;;;4927114;28;19961;-63
2024/01/30 15:33:30;;;;;;;;;;;;;;;;;;4926339;28;19994;-63
2024/01/30 15:35:56;;;;;;;;;;;;;;;;;;4924372;28;19953;-62
2024/01/30 15:38:21;;;;;;;;;;;;;;;;;;4926470;28;19926;-62
2024/01/30 15:40:47;;;;;;;;;;;;;;;;;;4925108;29;19918;-62
2024/01/30 15:43:12;;;;;;;;;;;;;;;;;;4925918;29;19911;-62
2024/01/30 15:45:37;;;;;;;;;;;;;;;;;;4926940;29;19974;-63
2024/01/30 15:48:03;;;;;;;;;;;;;;;;;;4928063;28;19974;-62
2024/01/30 15:50:28;;;;;;;;;;;;;;;;;;4934246;28;19974;-62
2024/01/30 15:52:54;;;;;;;;;;;;;;;;;;4932856;29;19974;-62
2024/01/30 15:55:20;;;;;;;;;;;;;;;;;;4927688;28;19958;-62
2024/01/30 15:57:45;;;;;;;;;;;;;;;;;;4926726;29;19911;-64
2024/01/30 16:00:11;;;;;;;;;;;;;;;;;;4925518;29;19970;-63
2024/01/30 16:02:36;;;;;;;;;;;;;;;;;;4925429;29;19918;-63
2024/01/30 16:05:02;;;;;;;;;;;;;;;;;;4924792;28;19918;-62
2024/01/30 16:07:27;;;;;;;;;;;;;;;;;;4938204;28;19921;-61
2024/01/30 16:09:53;;;;;;;;;;;;;;;;;;4927531;28;20315;-62
2024/01/30 16:12:18;;;;;;;;;;;;;;;;;;4925084;29;19925;-62
2024/01/30 16:14:43;;;;;;;;;;;;;;;;;;4924936;29;19919;-62
2024/01/30 16:17:08;;;;;;;;;;;;;;;;;;4925347;29;19989;-62
2024/01/30 16:19:34;;;;;;;;;;;;;;;;;;4925492;29;19918;-63
2024/01/30 16:21:59;;;;;;;;;;;;;;;;;;4925128;29;19915;-62
2024/01/30 16:24:25;;;;;;;;;;;;;;;;;;4925158;29;20355;-63
2024/01/30 16:26:50;;;;;;;;;;;;;;;;;;4907858;29;19919;-62
2024/01/30 16:29:16;;;;;;;;;;;;;;;;;;4907878;29;19915;-63
2024/01/30 16:31:41;;;;;;;;;;;;;;;;;;4924516;29;20595;-63
2024/01/30 16:34:06;;;;;;;;;;;;;;;;;;4925637;29;19914;-62
2024/01/30 16:36:31;;;;;;;;;;;;;;;;;;4925228;29;19919;-63